Time;durP1;ratioP1;P1;durP2;ratioP2;P2;SDS_P1;SDS_P2;PMS_P1;PMS_P2;Temp;Humidity;BMP_temperature;BMP_pressure;BME280_temperature;BME280_humidity;BME280_pressure;Samples;Min_cycle;Max_cycle;Signal;HPM_P1;HPM_P2
2022/07/21 00:00:53;;;;;;;4.13;2.47;;;;;;;;;;5012773;28;20049;-72
2022/07/21 00:03:19;;;;;;;4.75;1.80;;;;;;;;;;5015944;28;20037;-71
2022/07/21 00:05:44;;;;;;;2.70;1.75;;;;;;;;;;5035140;28;20021;-72
2022/07/21 00:08:12;;;;;;;6.55;2.45;;;;;;;;;;5029319;28;20034;-72
2022/07/21 00:10:38;;;;;;;4.20;2.35;;;;;;;;;;5029479;28;20053;-72
2022/07/21 00:13:04;;;;;;;4.47;2.40;;;;;;;;;;5014819;28;20021;-72
2022/07/21 00:15:30;;;;;;;3.75;2.03;;;;;;;;;;5022631;28;20050;-72
2022/07/21 00:17:57;;;;;;;2.92;2.15;;;;;;;;;;5047577;28;20545;-72
2022/07/21 00:20:24;;;;;;;3.95;2.03;;;;;;;;;;5044805;28;20036;-72
2022/07/21 00:22:49;;;;;;;3.10;2.47;;;;;;;;;;5043119;28;20029;-72
2022/07/21 00:25:17;;;;;;;5.50;3.35;;;;;;;;;;5055074;28;20044;-72
2022/07/21 00:27:47;;;;;;;3.35;1.95;;;;;;;;;;5034149;28;20474;-73
2022/07/21 00:30:13;;;;;;;7.38;3.20;;;;;;;;;;5053144;28;20393;-74
2022/07/21 00:32:39;;;;;;;3.53;2.45;;;;;;;;;;5040539;28;20025;-72
2022/07/21 00:35:07;;;;;;;4.20;2.85;;;;;;;;;;5053989;28;20025;-72
2022/07/21 00:37:35;;;;;;;4.20;2.38;;;;;;;;;;5052443;28;20029;-72
2022/07/21 00:40:03;;;;;;;3.58;2.15;;;;;;;;;;5025441;28;20124;-71
2022/07/21 00:42:31;;;;;;;4.90;2.35;;;;;;;;;;5038466;28;20017;-72
2022/07/21 00:45:00;;;;;;;4.65;2.15;;;;;;;;;;5054710;28;20033;-72
2022/07/21 00:47:28;;;;;;;2.85;1.63;;;;;;;;;;5048545;28;20087;-72
2022/07/21 00:49:54;;;;;;;2.45;1.58;;;;;;;;;;5055077;28;20021;-72
2022/07/21 00:52:20;;;;;;;1.80;1.50;;;;;;;;;;5052041;28;20071;-72
2022/07/21 00:54:49;;;;;;;3.78;1.80;;;;;;;;;;5048511;28;20047;-73
2022/07/21 00:57:15;;;;;;;2.67;1.80;;;;;;;;;;5054681;28;20025;-73
2022/07/21 00:59:43;;;;;;;3.40;1.90;;;;;;;;;;5043283;28;20473;-72
2022/07/21 01:02:12;;;;;;;2.53;1.98;;;;;;;;;;5049547;28;20465;-72
2022/07/21 01:04:40;;;;;;;2.83;1.55;;;;;;;;;;5044581;28;20035;-72
2022/07/21 01:07:09;;;;;;;2.03;1.20;;;;;;;;;;5055058;28;20029;-72
2022/07/21 01:09:45;;;;;;;4.32;1.77;;;;;;;;;;5035668;28;20482;-81
2022/07/21 01:12:11;;;;;;;1.50;1.40;;;;;;;;;;5035028;28;20031;-80
2022/07/21 01:14:36;;;;;;;3.67;1.80;;;;;;;;;;5054313;28;20024;-81
2022/07/21 01:17:10;;;;;;;2.60;1.98;;;;;;;;;;5053429;28;20033;-81
2022/07/21 01:19:38;;;;;;;2.50;1.67;;;;;;;;;;5054284;28;20370;-82
2022/07/21 01:22:06;;;;;;;2.55;2.05;;;;;;;;;;5053822;28;20052;-82
2022/07/21 01:24:32;;;;;;;2.72;1.55;;;;;;;;;;5051152;28;20032;-83
2022/07/21 01:26:57;;;;;;;3.20;2.08;;;;;;;;;;5034869;28;20711;-81
2022/07/21 01:29:27;;;;;;;1.50;1.23;;;;;;;;;;5052064;28;20021;-81
2022/07/21 01:31:53;;;;;;;4.95;1.88;;;;;;;;;;5032972;28;20071;-82
2022/07/21 01:34:21;;;;;;;9.45;2.55;;;;;;;;;;5047952;28;20029;-84
2022/07/21 01:36:51;;;;;;;3.95;2.45;;;;;;;;;;5035427;28;20454;-82
2022/07/21 01:42:03;;;;;;;2.47;1.77;;;;;;;;;;5050240;28;20044;-84
2022/07/21 01:44:28;;;;;;;2.10;1.58;;;;;;;;;;5053848;28;20453;-85
2022/07/21 01:46:56;;;;;;;3.45;2.28;;;;;;;;;;5027172;28;20029;-86
2022/07/21 01:49:22;;;;;;;4.18;1.55;;;;;;;;;;5037141;28;20107;-82
2022/07/21 01:51:50;;;;;;;4.10;2.55;;;;;;;;;;5054481;28;20061;-85
2022/07/21 01:54:19;;;;;;;3.72;2.38;;;;;;;;;;5029637;28;20049;-84
2022/07/21 01:56:44;;;;;;;5.25;2.22;;;;;;;;;;5024948;28;20132;-84
2022/07/21 01:59:12;;;;;;;4.43;2.38;;;;;;;;;;5033475;28;20467;-83
2022/07/21 02:01:40;;;;;;;7.93;2.55;;;;;;;;;;5035422;28;20043;-84
2022/07/21 02:04:05;;;;;;;2.75;2.15;;;;;;;;;;5035508;28;20040;-82
2022/07/21 02:06:34;;;;;;;4.00;2.75;;;;;;;;;;5043759;28;20025;-81
2022/07/21 02:09:02;;;;;;;3.15;1.75;;;;;;;;;;5049672;28;20034;-84
2022/07/21 02:11:27;;;;;;;3.75;2.10;;;;;;;;;;5045284;28;20024;-83
2022/07/21 02:13:53;;;;;;;2.67;2.30;;;;;;;;;;5050107;28;20036;-83
2022/07/21 02:16:18;;;;;;;2.55;2.08;;;;;;;;;;5052172;28;20032;-81
2022/07/21 02:18:46;;;;;;;2.67;1.98;;;;;;;;;;5049721;28;20017;-84
2022/07/21 02:21:16;;;;;;;2.78;2.25;;;;;;;;;;5044065;28;20025;-84
2022/07/21 02:23:46;;;;;;;2.47;1.95;;;;;;;;;;5051831;28;20029;-83
2022/07/21 02:26:12;;;;;;;1.63;1.35;;;;;;;;;;5050783;28;20036;-80
2022/07/21 02:28:40;;;;;;;3.63;2.45;;;;;;;;;;5050047;28;20358;-81
2022/07/21 02:31:06;;;;;;;1.67;1.10;;;;;;;;;;5045201;28;20021;-81
2022/07/21 02:33:31;;;;;;;3.25;2.28;;;;;;;;;;5051128;28;20087;-77
2022/07/21 02:35:59;;;;;;;4.03;2.67;;;;;;;;;;5052685;28;20032;-81
2022/07/21 02:38:26;;;;;;;10.02;1.40;;;;;;;;;;5052808;28;20033;-82
2022/07/21 02:40:53;;;;;;;1.42;1.15;;;;;;;;;;5052314;28;20104;-82
2022/07/21 02:43:19;;;;;;;1.58;1.42;;;;;;;;;;5052320;28;20039;-83
2022/07/21 02:45:44;;;;;;;2.25;1.27;;;;;;;;;;5050502;28;20354;-80
2022/07/21 02:48:12;;;;;;;1.13;1.00;;;;;;;;;;5044680;28;20039;-82
2022/07/21 02:50:41;;;;;;;1.52;1.33;;;;;;;;;;5041226;28;20033;-85
2022/07/21 02:53:17;;;;;;;2.72;1.88;;;;;;;;;;5036354;28;20064;-82
2022/07/21 02:55:46;;;;;;;3.55;1.15;;;;;;;;;;5050359;28;20492;-84
2022/07/21 02:58:16;;;;;;;4.68;1.85;;;;;;;;;;5052462;28;20028;-82
2022/07/21 03:00:44;;;;;;;3.13;1.80;;;;;;;;;;5053199;28;20033;-82
2022/07/21 03:03:12;;;;;;;3.65;1.58;;;;;;;;;;5047723;28;20090;-81
2022/07/21 03:05:40;;;;;;;3.92;1.38;;;;;;;;;;5066973;28;20036;-81
2022/07/21 03:08:07;;;;;;;1.83;1.50;;;;;;;;;;5035697;28;20090;-82
2022/07/21 03:10:32;;;;;;;6.72;2.40;;;;;;;;;;5043751;28;20076;-83
2022/07/21 03:12:58;;;;;;;1.60;1.40;;;;;;;;;;5066848;28;20048;-83
2022/07/21 03:15:23;;;;;;;4.22;2.53;;;;;;;;;;5033230;28;20587;-82
2022/07/21 03:17:51;;;;;;;3.90;1.70;;;;;;;;;;5067605;28;20059;-82
2022/07/21 03:20:19;;;;;;;1.40;1.13;;;;;;;;;;5051483;28;20045;-81
2022/07/21 03:22:47;;;;;;;4.35;1.73;;;;;;;;;;5051030;28;20039;-81
2022/07/21 03:25:12;;;;;;;3.10;1.75;;;;;;;;;;5033129;28;20037;-80
2022/07/21 03:27:37;;;;;;;4.32;1.95;;;;;;;;;;5068496;28;20044;-81
2022/07/21 03:30:05;;;;;;;2.03;1.33;;;;;;;;;;5029008;28;20113;-82
2022/07/21 03:32:30;;;;;;;2.50;1.20;;;;;;;;;;5035272;28;20655;-80
2022/07/21 03:34:58;;;;;;;2.83;1.80;;;;;;;;;;5052118;28;20093;-81
2022/07/21 03:37:24;;;;;;;2.60;2.20;;;;;;;;;;5048396;28;20037;-81
2022/07/21 03:39:53;;;;;;;2.90;1.23;;;;;;;;;;5053400;28;20024;-81
2022/07/21 03:42:19;;;;;;;6.13;2.30;;;;;;;;;;5050416;28;20024;-84
2022/07/21 03:44:44;;;;;;;7.43;1.70;;;;;;;;;;5040178;28;20366;-84
2022/07/21 03:47:11;;;;;;;4.45;2.35;;;;;;;;;;5032947;28;20079;-82
2022/07/21 03:49:36;;;;;;;5.72;2.80;;;;;;;;;;5044361;28;20450;-83
2022/07/21 03:52:02;;;;;;;3.83;2.25;;;;;;;;;;5052436;28;20041;-82
2022/07/21 03:54:27;;;;;;;2.28;2.08;;;;;;;;;;5051534;28;20035;-82
2022/07/21 03:56:53;;;;;;;2.42;1.50;;;;;;;;;;5039507;28;20017;-83
2022/07/21 03:59:18;;;;;;;3.20;2.13;;;;;;;;;;5053049;28;20029;-82
2022/07/21 04:01:44;;;;;;;2.70;1.55;;;;;;;;;;5054161;28;20020;-81
2022/07/21 04:04:09;;;;;;;5.10;2.05;;;;;;;;;;5045609;28;20051;-81
2022/07/21 04:06:35;;;;;;;2.17;1.23;;;;;;;;;;5053469;28;20032;-81
2022/07/21 04:09:00;;;;;;;2.25;2.05;;;;;;;;;;5054064;28;20047;-81
2022/07/21 04:11:29;;;;;;;5.80;2.15;;;;;;;;;;5053596;28;20037;-82
2022/07/21 04:13:54;;;;;;;2.13;1.80;;;;;;;;;;5054452;28;20021;-79
2022/07/21 04:16:22;;;;;;;4.38;1.52;;;;;;;;;;5046105;28;20087;-80
2022/07/21 04:18:50;;;;;;;2.25;2.05;;;;;;;;;;5049179;28;20063;-81
2022/07/21 04:21:15;;;;;;;2.55;1.80;;;;;;;;;;5041570;28;20040;-79
2022/07/21 04:23:40;;;;;;;2.90;1.80;;;;;;;;;;5047437;28;20028;-80
2022/07/21 04:26:06;;;;;;;4.72;2.55;;;;;;;;;;5032992;28;20186;-80
2022/07/21 04:28:31;;;;;;;3.60;2.00;;;;;;;;;;5055103;28;20436;-80
2022/07/21 04:30:57;;;;;;;3.00;2.63;;;;;;;;;;5034920;28;20025;-79
2022/07/21 04:33:22;;;;;;;2.28;1.55;;;;;;;;;;5054655;28;20100;-79
2022/07/21 04:35:47;;;;;;;2.13;1.58;;;;;;;;;;5053335;28;20048;-79
2022/07/21 04:38:15;;;;;;;2.55;1.73;;;;;;;;;;5033806;28;20037;-80
2022/07/21 04:40:46;;;;;;;2.60;2.03;;;;;;;;;;5038772;28;20025;-81
2022/07/21 04:43:14;;;;;;;2.80;1.77;;;;;;;;;;5048130;28;20056;-80
2022/07/21 04:45:42;;;;;;;2.60;2.10;;;;;;;;;;5037285;28;20048;-80
2022/07/21 04:48:07;;;;;;;3.28;2.08;;;;;;;;;;5039084;28;20029;-80
2022/07/21 04:50:35;;;;;;;3.53;2.47;;;;;;;;;;5034986;28;20032;-81
2022/07/21 04:53:12;;;;;;;6.88;2.20;;;;;;;;;;5035185;28;20111;-80
2022/07/21 04:55:40;;;;;;;3.58;2.58;;;;;;;;;;5032714;28;20021;-81
2022/07/21 04:58:11;;;;;;;4.80;2.92;;;;;;;;;;5021216;28;20026;-81
2022/07/21 05:00:37;;;;;;;4.93;3.38;;;;;;;;;;5041771;28;20029;-78
2022/07/21 05:03:04;;;;;;;4.35;3.47;;;;;;;;;;5049180;28;20090;-78
2022/07/21 05:05:32;;;;;;;3.83;2.33;;;;;;;;;;5055322;28;20481;-79
2022/07/21 05:08:01;;;;;;;4.47;1.98;;;;;;;;;;5053305;28;20048;-79
2022/07/21 05:10:27;;;;;;;3.38;2.30;;;;;;;;;;5054908;28;20035;-79
2022/07/21 05:12:52;;;;;;;3.75;2.80;;;;;;;;;;5029357;28;20403;-79
2022/07/21 05:15:18;;;;;;;2.60;1.75;;;;;;;;;;5028368;28;20036;-79
2022/07/21 05:17:46;;;;;;;4.35;2.75;;;;;;;;;;5045108;28;20447;-79
2022/07/21 05:20:11;;;;;;;4.53;2.47;;;;;;;;;;5038088;28;20037;-79
2022/07/21 05:22:39;;;;;;;4.05;2.67;;;;;;;;;;5055693;28;20100;-79
2022/07/21 05:25:05;;;;;;;5.80;4.20;;;;;;;;;;5019626;28;20044;-79
2022/07/21 05:27:35;;;;;;;6.45;3.75;;;;;;;;;;5038511;28;20108;-80
2022/07/21 05:30:03;;;;;;;4.45;3.80;;;;;;;;;;5033564;28;20082;-78
2022/07/21 05:32:28;;;;;;;4.60;2.05;;;;;;;;;;5054243;28;20455;-79
2022/07/21 05:34:54;;;;;;;4.82;3.30;;;;;;;;;;5037903;28;20031;-79
2022/07/21 05:37:25;;;;;;;9.60;4.72;;;;;;;;;;5037705;28;20071;-79
2022/07/21 05:39:52;;;;;;;4.80;2.92;;;;;;;;;;5044626;28;20033;-80
2022/07/21 05:42:20;;;;;;;4.40;2.60;;;;;;;;;;5044288;28;20021;-79
2022/07/21 05:44:45;;;;;;;4.32;2.67;;;;;;;;;;5052894;28;20052;-79
2022/07/21 05:47:11;;;;;;;5.38;3.08;;;;;;;;;;5046641;28;20056;-79
2022/07/21 05:49:39;;;;;;;5.30;3.45;;;;;;;;;;5034509;28;20125;-79
2022/07/21 05:52:05;;;;;;;6.15;3.25;;;;;;;;;;5017855;28;20017;-78
2022/07/21 05:54:33;;;;;;;5.65;3.55;;;;;;;;;;5042235;28;20098;-81
2022/07/21 05:57:10;;;;;;;5.60;3.08;;;;;;;;;;5037449;28;20048;-80
2022/07/21 05:59:36;;;;;;;3.63;2.63;;;;;;;;;;5041068;28;20036;-81
2022/07/21 06:02:03;;;;;;;3.67;3.20;;;;;;;;;;5055624;28;20025;-79
2022/07/21 06:04:42;;;;;;;4.20;2.63;;;;;;;;;;5056029;28;20024;-81
2022/07/21 06:07:07;;;;;;;4.95;3.72;;;;;;;;;;5039157;28;20029;-79
2022/07/21 06:09:35;;;;;;;3.88;3.38;;;;;;;;;;5050321;28;20044;-80
2022/07/21 06:12:00;;;;;;;3.97;3.17;;;;;;;;;;5038249;28;20064;-82
2022/07/21 06:14:28;;;;;;;6.55;4.35;;;;;;;;;;5053668;28;20087;-80
2022/07/21 06:16:54;;;;;;;5.88;3.15;;;;;;;;;;5053317;28;20362;-80
2022/07/21 06:19:26;;;;;;;4.10;2.88;;;;;;;;;;5053612;28;20025;-80
2022/07/21 06:21:52;;;;;;;4.20;2.78;;;;;;;;;;5037013;28;20056;-80
2022/07/21 06:24:22;;;;;;;6.78;3.58;;;;;;;;;;5037049;28;20048;-80
2022/07/21 06:26:55;;;;;;;4.50;2.97;;;;;;;;;;5053127;28;20366;-80
2022/07/21 06:29:23;;;;;;;5.78;3.15;;;;;;;;;;5037194;28;20067;-80
2022/07/21 06:31:48;;;;;;;6.03;3.13;;;;;;;;;;5070437;28;20038;-80
2022/07/21 06:34:16;;;;;;;5.70;3.28;;;;;;;;;;5054024;28;20037;-79
2022/07/21 06:36:41;;;;;;;12.40;5.25;;;;;;;;;;5033928;28;20036;-80
2022/07/21 06:39:06;;;;;;;4.75;3.13;;;;;;;;;;5042576;28;20025;-79
2022/07/21 06:41:37;;;;;;;4.53;2.83;;;;;;;;;;5039195;28;20130;-79
2022/07/21 06:44:05;;;;;;;3.85;3.35;;;;;;;;;;5069933;28;20027;-79
2022/07/21 06:46:33;;;;;;;5.95;3.92;;;;;;;;;;5053266;28;20044;-80
2022/07/21 06:48:58;;;;;;;4.38;3.22;;;;;;;;;;5035779;28;20029;-80
2022/07/21 06:51:26;;;;;;;2.47;2.28;;;;;;;;;;5036383;28;20025;-81
2022/07/21 06:53:51;;;;;;;7.05;3.75;;;;;;;;;;5052500;28;20434;-80
2022/07/21 06:56:20;;;;;;;3.20;2.50;;;;;;;;;;5036086;28;20025;-78
2022/07/21 06:58:48;;;;;;;3.28;2.47;;;;;;;;;;5047889;28;20013;-79
2022/07/21 07:01:16;;;;;;;1.98;1.75;;;;;;;;;;5053146;28;20028;-79
2022/07/21 07:03:44;;;;;;;4.30;2.42;;;;;;;;;;5036756;28;20426;-80
2022/07/21 07:06:14;;;;;;;2.63;1.80;;;;;;;;;;5050528;28;20033;-79
2022/07/21 07:08:41;;;;;;;6.25;3.08;;;;;;;;;;5047883;28;20055;-80
2022/07/21 07:11:11;;;;;;;3.17;2.65;;;;;;;;;;5046291;28;20032;-79
2022/07/21 07:13:39;;;;;;;4.22;3.08;;;;;;;;;;5037160;28;20037;-80
2022/07/21 07:16:11;;;;;;;7.15;2.33;;;;;;;;;;5052606;28;20046;-80
2022/07/21 07:18:39;;;;;;;3.53;2.47;;;;;;;;;;5053144;28;20308;-80
2022/07/21 07:21:07;;;;;;;2.78;2.28;;;;;;;;;;5027419;28;20034;-80
2022/07/21 07:23:38;;;;;;;3.85;2.85;;;;;;;;;;5032747;28;20494;-80
2022/07/21 07:26:03;;;;;;;2.53;1.67;;;;;;;;;;5027705;28;20429;-79
2022/07/21 07:28:29;;;;;;;3.50;2.33;;;;;;;;;;5021707;28;20111;-80
2022/07/21 07:30:57;;;;;;;4.45;1.85;;;;;;;;;;5021528;28;20064;-81
2022/07/21 07:33:25;;;;;;;2.70;2.00;;;;;;;;;;5022971;28;20037;-81
2022/07/21 07:35:51;;;;;;;2.90;1.95;;;;;;;;;;5048461;28;20063;-81
2022/07/21 07:38:16;;;;;;;3.60;2.55;;;;;;;;;;5027677;28;20029;-79
2022/07/21 07:40:42;;;;;;;3.20;2.13;;;;;;;;;;5057419;28;20057;-81
2022/07/21 07:43:07;;;;;;;2.88;2.28;;;;;;;;;;5022168;28;20052;-81
2022/07/21 07:45:36;;;;;;;3.67;2.22;;;;;;;;;;5051832;28;20063;-80
2022/07/21 07:48:02;;;;;;;4.05;2.33;;;;;;;;;;5022246;28;20121;-81
2022/07/21 07:50:30;;;;;;;3.45;2.03;;;;;;;;;;5037639;28;20111;-81
2022/07/21 07:52:55;;;;;;;1.92;1.65;;;;;;;;;;5037701;28;20043;-80
2022/07/21 07:55:23;;;;;;;1.75;1.05;;;;;;;;;;5055471;28;20029;-79
2022/07/21 07:57:49;;;;;;;1.60;1.38;;;;;;;;;;5072825;28;20021;-80
2022/07/21 08:00:20;;;;;;;3.95;1.38;;;;;;;;;;5056823;28;20451;-81
2022/07/21 08:02:53;;;;;;;3.20;1.45;;;;;;;;;;5032524;28;20169;-81
2022/07/21 08:05:18;;;;;;;3.33;1.35;;;;;;;;;;5014626;28;20061;-80
2022/07/21 08:07:44;;;;;;;0.82;0.70;;;;;;;;;;5022610;28;20072;-81
2022/07/21 08:10:15;;;;;;;1.35;0.90;;;;;;;;;;5001592;28;20115;-82
2022/07/21 08:12:43;;;;;;;1.93;1.47;;;;;;;;;;5005131;28;20400;-81
2022/07/21 08:15:15;;;;;;;2.08;1.73;;;;;;;;;;4999091;28;20046;-81
2022/07/21 08:17:48;;;;;;;6.32;1.55;;;;;;;;;;5014558;28;20070;-80
2022/07/21 08:20:14;;;;;;;3.38;1.73;;;;;;;;;;5029606;28;20057;-80
2022/07/21 08:22:41;;;;;;;2.00;1.50;;;;;;;;;;5007426;28;20078;-81
2022/07/21 08:25:09;;;;;;;2.85;1.40;;;;;;;;;;4996415;28;20049;-80
2022/07/21 08:27:34;;;;;;;2.38;1.10;;;;;;;;;;5009543;28;20356;-81
2022/07/21 08:30:00;;;;;;;2.63;1.67;;;;;;;;;;5020175;28;20047;-80
2022/07/21 08:32:33;;;;;;;1.42;1.33;;;;;;;;;;5015587;28;20107;-81
2022/07/21 08:35:01;;;;;;;1.70;1.35;;;;;;;;;;4996518;28;20041;-80
2022/07/21 08:37:26;;;;;;;2.20;1.45;;;;;;;;;;5006255;28;20593;-81
2022/07/21 08:39:56;;;;;;;1.33;1.23;;;;;;;;;;4997479;28;20022;-80
2022/07/21 08:42:26;;;;;;;5.88;1.95;;;;;;;;;;5000484;28;20402;-81
2022/07/21 08:44:51;;;;;;;1.65;1.10;;;;;;;;;;5070713;28;20429;-80
2022/07/21 08:47:17;;;;;;;1.38;1.27;;;;;;;;;;5057201;28;20052;-80
2022/07/21 08:49:42;;;;;;;1.17;1.00;;;;;;;;;;5041673;28;20132;-79
2022/07/21 08:52:10;;;;;;;1.67;1.48;;;;;;;;;;5047356;28;20638;-80
2022/07/21 08:54:36;;;;;;;2.17;1.25;;;;;;;;;;5053211;28;20047;-80
2022/07/21 08:57:06;;;;;;;1.60;1.17;;;;;;;;;;5033300;28;20021;-80
2022/07/21 08:59:34;;;;;;;2.45;1.30;;;;;;;;;;5033278;28;20106;-81
2022/07/21 09:01:59;;;;;;;1.40;1.30;;;;;;;;;;5015740;28;20044;-81
2022/07/21 09:04:56;;;;;;;1.90;1.27;;;;;;;;;;5000337;28;20363;-79
2022/07/21 09:07:23;;;;;;;1.67;1.20;;;;;;;;;;4958353;28;20049;-80
2022/07/21 09:10:02;;;;;;;1.52;1.25;;;;;;;;;;4974548;28;20453;-80
2022/07/21 09:12:28;;;;;;;1.38;1.15;;;;;;;;;;4955864;28;20043;-78
2022/07/21 09:15:15;;;;;;;1.60;1.40;;;;;;;;;;4974754;28;20038;-81
2022/07/21 09:17:40;;;;;;;1.30;1.02;;;;;;;;;;4975190;28;20038;-78
2022/07/21 09:20:22;;;;;;;8.05;1.95;;;;;;;;;;4958849;28;20043;-81
2022/07/21 09:23:07;;;;;;;2.53;2.10;;;;;;;;;;4974357;28;20181;-81
2022/07/21 09:25:45;;;;;;;2.03;1.63;;;;;;;;;;4973302;28;20042;-80
2022/07/21 09:28:20;;;;;;;2.05;1.63;;;;;;;;;;4974890;28;20046;-80
2022/07/21 09:31:00;;;;;;;3.13;1.67;;;;;;;;;;4975790;28;20038;-79
2022/07/21 09:33:27;;;;;;;1.45;1.08;;;;;;;;;;4994085;28;20054;-79
2022/07/21 09:35:54;;;;;;;0.80;0.77;;;;;;;;;;4976176;28;20026;-82
2022/07/21 09:38:22;;;;;;;2.00;1.08;;;;;;;;;;4989204;28;20069;-79
2022/07/21 09:40:48;;;;;;;1.90;1.35;;;;;;;;;;4993025;28;20042;-81
2022/07/21 09:43:43;;;;;;;0.70;0.60;;;;;;;;;;4992800;28;20038;-79
2022/07/21 09:46:26;;;;;;;1.75;1.33;;;;;;;;;;5053308;28;20029;-78
2022/07/21 09:49:01;;;;;;;1.42;1.30;;;;;;;;;;5053039;28;20033;-77
2022/07/21 09:51:38;;;;;;;1.60;1.13;;;;;;;;;;5045855;28;20107;-78
2022/07/21 09:54:10;;;;;;;1.92;1.70;;;;;;;;;;5053407;28;20037;-79
2022/07/21 09:56:49;;;;;;;3.70;1.15;;;;;;;;;;5047438;28;20104;-80
2022/07/21 09:59:15;;;;;;;1.95;1.33;;;;;;;;;;5052255;28;20025;-80
2022/07/21 10:01:41;;;;;;;1.55;1.17;;;;;;;;;;5054988;28;20090;-81
2022/07/21 10:04:26;;;;;;;2.80;2.28;;;;;;;;;;5053389;28;20047;-80
2022/07/21 10:06:51;;;;;;;1.52;1.25;;;;;;;;;;5048005;28;20095;-82
2022/07/21 10:09:29;;;;;;;2.72;1.58;;;;;;;;;;5049687;28;20022;-82
2022/07/21 10:11:54;;;;;;;1.42;0.95;;;;;;;;;;5047289;28;20700;-83
2022/07/21 10:14:20;;;;;;;2.47;1.17;;;;;;;;;;5037191;28;20025;-83
2022/07/21 10:16:45;;;;;;;4.22;1.48;;;;;;;;;;5037438;28;20466;-83
2022/07/21 10:19:28;;;;;;;1.83;1.60;;;;;;;;;;5050408;28;20103;-82
2022/07/21 10:22:32;;;;;;;1.45;1.33;;;;;;;;;;5057834;28;20436;-84
2022/07/21 10:24:58;;;;;;;2.38;1.58;;;;;;;;;;5029573;28;20036;-86
2022/07/21 10:27:23;;;;;;;2.42;1.67;;;;;;;;;;5024850;28;20108;-84
2022/07/21 10:30:01;;;;;;;2.83;1.73;;;;;;;;;;5027712;28;20129;-84
2022/07/21 10:32:32;;;;;;;1.83;1.25;;;;;;;;;;5052512;28;20025;-82
2022/07/21 10:35:00;;;;;;;2.50;1.90;;;;;;;;;;5054210;28;20021;-83
2022/07/21 10:37:49;;;;;;;1.70;1.60;;;;;;;;;;5036400;28;20086;-84
2022/07/21 10:40:24;;;;;;;2.63;1.45;;;;;;;;;;5034190;28;20044;-82
2022/07/21 10:42:58;;;;;;;4.57;1.50;;;;;;;;;;5043053;28;20029;-84
2022/07/21 10:45:34;;;;;;;2.20;1.60;;;;;;;;;;5037306;28;20025;-84
2022/07/21 10:48:08;;;;;;;2.67;1.63;;;;;;;;;;5055711;28;20454;-83
2022/07/21 10:50:36;;;;;;;1.75;1.38;;;;;;;;;;5025269;28;20036;-85
2022/07/21 10:53:18;;;;;;;4.22;2.00;;;;;;;;;;5050243;28;20021;-86
2022/07/21 10:55:52;;;;;;;;;;;;;;;;;;5054094;28;20029;-83
2022/07/21 10:58:38;;;;;;;1.33;1.05;;;;;;;;;;5052222;28;19935;-84
2022/07/21 11:01:26;;;;;;;2.05;1.60;;;;;;;;;;5053748;28;20119;-82
2022/07/21 11:04:06;;;;;;;4.15;2.30;;;;;;;;;;5056308;28;20033;-84
2022/07/21 11:06:35;;;;;;;3.40;2.15;;;;;;;;;;5057565;28;20025;-83
2022/07/21 11:09:04;;;;;;;1.55;0.95;;;;;;;;;;5039981;28;20040;-82
2022/07/21 11:11:59;;;;;;;5.13;2.17;;;;;;;;;;5057727;28;20068;-82
2022/07/21 11:14:54;;;;;;;3.30;1.85;;;;;;;;;;5053432;28;20065;-86
2022/07/21 11:17:38;;;;;;;3.88;2.17;;;;;;;;;;5051265;28;20084;-86
2022/07/21 11:20:24;;;;;;;3.88;2.22;;;;;;;;;;5057466;28;20048;-82
2022/07/21 11:22:54;;;;;;;3.95;2.22;;;;;;;;;;5045592;28;20032;-84
2022/07/21 11:25:23;;;;;;;2.28;2.08;;;;;;;;;;5044557;28;20120;-89
2022/07/21 11:27:50;;;;;;;1.90;1.63;;;;;;;;;;5025331;28;20032;-85
2022/07/21 11:30:17;;;;;;;3.05;2.17;;;;;;;;;;5036102;28;20120;-91
2022/07/21 11:32:47;;;;;;;3.47;1.77;;;;;;;;;;5055537;28;20025;-87
2022/07/21 11:35:13;;;;;;;3.60;2.42;;;;;;;;;;5056751;28;20029;-85
2022/07/21 11:37:41;;;;;;;4.18;2.08;;;;;;;;;;5039008;28;20515;-85
2022/07/21 11:40:11;;;;;;;5.88;2.08;;;;;;;;;;5040222;28;20016;-85
2022/07/21 11:42:37;;;;;;;3.08;2.47;;;;;;;;;;5057168;28;20059;-86
2022/07/21 11:45:06;;;;;;;3.00;2.15;;;;;;;;;;5049812;28;20025;-86
2022/07/21 11:47:32;;;;;;;5.28;2.85;;;;;;;;;;4999486;28;20034;-85
2022/07/21 11:50:00;;;;;;;2.42;1.90;;;;;;;;;;4999232;28;20364;-80
2022/07/21 11:52:28;;;;;;;4.05;2.35;;;;;;;;;;4988766;28;20042;-80
2022/07/21 11:55:09;;;;;;;3.58;2.63;;;;;;;;;;4979474;28;20040;-81
2022/07/21 11:57:38;;;;;;;9.63;2.80;;;;;;;;;;4995704;28;20026;-81
2022/07/21 12:00:08;;;;;;;4.00;3.28;;;;;;;;;;4989436;28;20051;-81
2022/07/21 12:02:36;;;;;;;2.97;2.38;;;;;;;;;;4998824;28;20023;-81
2022/07/21 12:05:03;;;;;;;2.22;1.83;;;;;;;;;;4995168;28;20391;-80
2022/07/21 12:07:30;;;;;;;6.60;2.60;;;;;;;;;;5007754;28;20048;-80
2022/07/21 12:10:06;;;;;;;3.08;2.00;;;;;;;;;;5002009;28;20033;-80
2022/07/21 12:12:57;;;;;;;3.00;1.85;;;;;;;;;;5033882;28;20033;-80
2022/07/21 12:15:28;;;;;;;3.33;2.30;;;;;;;;;;5014708;28;20042;-82
2022/07/21 12:17:58;;;;;;;2.35;1.65;;;;;;;;;;4999104;28;20180;-83
2022/07/21 12:20:29;;;;;;;2.58;1.42;;;;;;;;;;5015022;28;20029;-81
2022/07/21 12:22:55;;;;;;;1.75;0.95;;;;;;;;;;5014725;28;20034;-79
2022/07/21 12:26:14;;;;;;;1.80;1.10;;;;;;;;;;5033682;28;20041;-81
2022/07/21 12:28:43;;;;;;;3.53;1.55;;;;;;;;;;5052713;28;20040;-81
2022/07/21 12:31:14;;;;;;;1.50;1.38;;;;;;;;;;5053149;28;20056;-81
2022/07/21 12:33:42;;;;;;;6.75;2.45;;;;;;;;;;5037501;28;20456;-84
2022/07/21 12:36:09;;;;;;;1.83;1.30;;;;;;;;;;5045132;28;20059;-85
2022/07/21 12:39:12;;;;;;;1.92;1.58;;;;;;;;;;5035785;28;20090;-83
2022/07/21 12:41:44;;;;;;;1.40;1.23;;;;;;;;;;5036720;28;20064;-82
2022/07/21 12:44:13;;;;;;;2.57;1.60;;;;;;;;;;5042620;28;20021;-85
2022/07/21 12:46:45;;;;;;;5.75;2.35;;;;;;;;;;5048565;28;20291;-81
2022/07/21 12:49:10;;;;;;;1.63;1.48;;;;;;;;;;5054504;28;20029;-81
2022/07/21 12:51:42;;;;;;;1.65;1.10;;;;;;;;;;5052752;28;20033;-85
2022/07/21 12:54:07;;;;;;;2.92;1.90;;;;;;;;;;5061829;28;20043;-79
2022/07/21 12:56:34;;;;;;;1.73;1.40;;;;;;;;;;5036499;28;20108;-80
2022/07/21 12:59:20;;;;;;;2.25;1.60;;;;;;;;;;5050352;28;20025;-78
2022/07/21 13:01:47;;;;;;;2.30;1.83;;;;;;;;;;5055800;28;20021;-79
2022/07/21 13:04:22;;;;;;;2.50;1.17;;;;;;;;;;5045491;28;20104;-80
2022/07/21 13:06:47;;;;;;;1.98;1.40;;;;;;;;;;5058320;28;20055;-81
2022/07/21 13:09:14;;;;;;;1.50;1.38;;;;;;;;;;5059403;28;20110;-78
2022/07/21 13:11:41;;;;;;;2.50;1.83;;;;;;;;;;5037987;28;20060;-79
2022/07/21 13:14:07;;;;;;;2.38;1.40;;;;;;;;;;5054536;28;20056;-79
2022/07/21 13:16:32;;;;;;;0.65;0.65;;;;;;;;;;5037618;28;20427;-78
2022/07/21 13:18:58;;;;;;;2.05;1.77;;;;;;;;;;5054295;28;20087;-80
2022/07/21 13:21:23;;;;;;;1.73;1.08;;;;;;;;;;5035782;28;20060;-76
2022/07/21 13:23:51;;;;;;;1.52;1.02;;;;;;;;;;5044365;28;20036;-79
2022/07/21 13:26:17;;;;;;;0.43;0.40;;;;;;;;;;5054623;28;20028;-80
2022/07/21 13:28:57;;;;;;;1.10;1.00;;;;;;;;;;5061306;28;20028;-80
2022/07/21 13:31:25;;;;;;;2.42;0.95;;;;;;;;;;5059408;28;20332;-79
2022/07/21 13:33:56;;;;;;;1.27;1.00;;;;;;;;;;5054487;28;20118;-79
2022/07/21 13:36:23;;;;;;;1.17;0.70;;;;;;;;;;5052537;28;20458;-78
2022/07/21 13:39:05;;;;;;;1.73;1.10;;;;;;;;;;5036204;28;20041;-80
2022/07/21 13:41:32;;;;;;;2.10;1.08;;;;;;;;;;5052424;28;20043;-77
2022/07/21 13:43:57;;;;;;;1.60;1.08;;;;;;;;;;5055455;28;20447;-78
2022/07/21 13:46:25;;;;;;;1.40;1.02;;;;;;;;;;5059712;28;20020;-80
2022/07/21 13:48:52;;;;;;;1.60;1.23;;;;;;;;;;5054940;28;20438;-79
2022/07/21 13:51:38;;;;;;;1.55;1.20;;;;;;;;;;5053027;28;20029;-84
2022/07/21 13:54:12;;;;;;;1.50;0.98;;;;;;;;;;5050786;28;20466;-80
2022/07/21 13:56:37;;;;;;;1.67;1.58;;;;;;;;;;5050095;28;20316;-79
2022/07/21 13:59:03;;;;;;;1.88;1.00;;;;;;;;;;5051809;28;20094;-78
2022/07/21 14:01:29;;;;;;;1.60;0.75;;;;;;;;;;5053169;28;20025;-79
2022/07/21 14:04:01;;;;;;;2.72;1.05;;;;;;;;;;5048685;28;20071;-80
2022/07/21 14:06:29;;;;;;;3.60;1.42;;;;;;;;;;5053842;28;20032;-82
2022/07/21 14:09:00;;;;;;;1.92;1.20;;;;;;;;;;5036227;28;20095;-80
2022/07/21 14:11:28;;;;;;;2.03;1.67;;;;;;;;;;5051354;28;20086;-80
2022/07/21 14:13:55;;;;;;;1.55;1.30;;;;;;;;;;5054747;28;20028;-81
2022/07/21 14:16:22;;;;;;;1.73;1.17;;;;;;;;;;5021825;28;20024;-79
2022/07/21 14:18:48;;;;;;;2.05;1.42;;;;;;;;;;5044951;28;20025;-78
2022/07/21 14:21:13;;;;;;;2.97;1.55;;;;;;;;;;5051379;28;20131;-77
2022/07/21 14:26:44;;;;;;;1.77;1.23;;;;;;;;;;5050724;28;20035;-79
2022/07/21 14:29:10;;;;;;;1.00;0.98;;;;;;;;;;5051459;28;20024;-79
2022/07/21 14:31:35;;;;;;;1.52;1.00;;;;;;;;;;5036520;28;20028;-81
2022/07/21 14:34:01;;;;;;;2.08;1.80;;;;;;;;;;5052477;28;20048;-81
2022/07/21 14:36:29;;;;;;;3.03;1.60;;;;;;;;;;5040752;28;20025;-82
2022/07/21 14:38:59;;;;;;;2.58;1.25;;;;;;;;;;5053772;28;20025;-82
2022/07/21 14:41:24;;;;;;;0.77;0.77;;;;;;;;;;5051071;28;20599;-79
2022/07/21 14:44:02;;;;;;;0.93;0.88;;;;;;;;;;5052950;28;20025;-81
2022/07/21 14:46:28;;;;;;;1.95;1.40;;;;;;;;;;5047661;28;20053;-81
2022/07/21 14:48:53;;;;;;;3.35;1.42;;;;;;;;;;5035608;28;20099;-82
2022/07/21 14:51:28;;;;;;;1.45;1.27;;;;;;;;;;5050525;28;20029;-86
2022/07/21 14:54:12;;;;;;;2.05;1.17;;;;;;;;;;5036729;28;20060;-82
2022/07/21 14:56:39;;;;;;;1.58;0.93;;;;;;;;;;5031806;28;20033;-79
2022/07/21 14:59:04;;;;;;;0.85;0.77;;;;;;;;;;5029172;28;20037;-81
2022/07/21 15:01:31;;;;;;;1.02;0.90;;;;;;;;;;5021877;28;20038;-82